createdAt,value
2022-09-07T00:00:25.269Z,101703.70
2022-09-07T00:01:27.143Z,101701.94
2022-09-07T00:02:29.060Z,101698.45
2022-09-07T00:03:31.011Z,101698.43
2022-09-07T00:04:32.984Z,101703.63
2022-09-07T00:05:35.906Z,101704.47
2022-09-07T00:06:37.877Z,101707.95
2022-09-07T00:07:39.754Z,101706.19
2022-09-07T00:08:41.640Z,101705.32
2022-09-07T00:09:43.511Z,101700.94
2022-09-07T00:10:45.500Z,101712.22
2022-09-07T00:11:47.352Z,101711.36
2022-09-07T00:12:49.280Z,101709.55
2022-09-07T00:13:51.262Z,101709.55
2022-09-07T00:14:53.119Z,101711.30
2022-09-07T00:15:55.019Z,101709.53
2022-09-07T00:16:58.013Z,101710.38
2022-09-07T00:17:59.834Z,101710.38
2022-09-07T00:19:01.723Z,101704.28
2022-09-07T00:20:03.693Z,101709.50
2022-09-07T00:21:05.652Z,101708.64
2022-09-07T00:22:08.017Z,101703.41
2022-09-07T00:23:09.892Z,101709.48
2022-09-07T00:24:11.817Z,101706.84
2022-09-07T00:25:13.968Z,101702.45
2022-09-07T00:26:16.235Z,101707.68
2022-09-07T00:27:18.082Z,101709.42
2022-09-07T00:28:19.950Z,101704.17
2022-09-07T00:29:21.916Z,101705.92
2022-09-07T00:30:25.596Z,101706.76
2022-09-07T00:31:27.490Z,101711.11
2022-09-07T00:32:29.354Z,101713.75
2022-09-07T00:33:31.209Z,101712.82
2022-09-07T00:34:33.109Z,101710.19
2022-09-07T00:35:35.168Z,101709.34
2022-09-07T00:36:37.118Z,101709.31
2022-09-07T00:37:41.452Z,101704.94
2022-09-07T00:38:43.657Z,101705.84
2022-09-07T00:39:45.586Z,101707.55
2022-09-07T00:40:47.519Z,101708.42
2022-09-07T00:41:49.381Z,101708.39
2022-09-07T00:42:51.367Z,101708.39
2022-09-07T00:43:53.234Z,101710.11
2022-09-07T00:44:55.226Z,101710.98
2022-09-07T00:45:57.079Z,101714.43
2022-09-07T00:46:59.074Z,101710.05
2022-09-07T00:48:00.901Z,101712.66
2022-09-07T00:49:02.752Z,101708.25
2022-09-07T00:50:04.754Z,101708.25
2022-09-07T00:51:06.587Z,101707.36
2022-09-07T00:52:08.423Z,101705.59
2022-09-07T00:53:10.266Z,101712.55
2022-09-07T00:54:12.095Z,101711.68
2022-09-07T00:55:13.971Z,101709.02
2022-09-07T00:56:16.823Z,101709.02
2022-09-07T00:57:18.644Z,101712.47
2022-09-07T00:58:20.497Z,101718.53
2022-09-07T00:59:22.351Z,101715.91
2022-09-07T01:00:25.121Z,101707.22
2022-09-07T01:01:27.135Z,101708.93
2022-09-07T01:02:29.152Z,101707.16
2022-09-07T01:03:31.051Z,101711.52
2022-09-07T01:04:32.885Z,101711.52
2022-09-07T01:05:34.764Z,101719.31
2022-09-07T01:06:36.725Z,101711.45
2022-09-07T01:07:38.555Z,101708.81
2022-09-07T01:08:40.385Z,101705.30
2022-09-07T01:09:42.231Z,101709.66
2022-09-07T01:10:44.202Z,101709.62
2022-09-07T01:11:46.054Z,101697.42
2022-09-07T01:12:47.902Z,101703.48
2022-09-07T01:13:49.762Z,101703.45
2022-09-07T01:14:51.597Z,101705.19
2022-09-07T01:15:53.742Z,101703.42
2022-09-07T01:16:55.737Z,101705.16
2022-09-07T01:17:57.583Z,101699.08
2022-09-07T01:18:59.445Z,101706.00
2022-09-07T01:20:01.275Z,101702.52
2022-09-07T01:21:03.148Z,101704.23
2022-09-07T01:22:04.992Z,101705.94
2022-09-07T01:23:06.848Z,101706.81
2022-09-07T01:24:08.684Z,101709.42
2022-09-07T01:25:10.525Z,101705.05
2022-09-07T01:26:14.137Z,101709.39
2022-09-07T01:27:15.992Z,101703.30
2022-09-07T01:28:17.824Z,101707.66
2022-09-07T01:29:19.657Z,101707.66
2022-09-07T01:30:21.603Z,101714.61
2022-09-07T01:31:23.718Z,101708.49
2022-09-07T01:32:25.571Z,101703.24
2022-09-07T01:33:27.428Z,101711.07
2022-09-07T01:34:29.273Z,101710.20
2022-09-07T01:35:31.115Z,101711.94
2022-09-07T01:36:33.077Z,101707.56
2022-09-07T01:37:34.920Z,101719.73
2022-09-07T01:38:36.750Z,101711.02
2022-09-07T01:39:38.622Z,101717.97
2022-09-07T01:40:40.540Z,101722.34
2022-09-07T01:41:42.424Z,101713.62
2022-09-07T01:42:44.267Z,101717.07
2022-09-07T01:43:46.105Z,101718.81
2022-09-07T01:44:47.955Z,101718.78
2022-09-07T01:45:49.789Z,101718.78
2022-09-07T01:46:52.248Z,101717.91
2022-09-07T01:47:53.993Z,101717.91
2022-09-07T01:48:55.822Z,101723.09
2022-09-07T01:49:57.670Z,101723.09
2022-09-07T01:50:59.639Z,101719.55
2022-09-07T01:52:01.486Z,101719.55
2022-09-07T01:53:03.320Z,101716.91
2022-09-07T01:54:05.054Z,101715.17
2022-09-07T01:55:06.902Z,101716.05
2022-09-07T01:56:09.548Z,101717.75
2022-09-07T01:57:11.438Z,101722.07
2022-09-07T01:58:13.268Z,101716.82
2022-09-07T01:59:15.121Z,101718.56
2022-09-07T02:00:17.355Z,101721.17
2022-09-07T02:01:19.272Z,101716.80
2022-09-07T02:02:21.283Z,101715.95
2022-09-07T02:03:23.111Z,101716.80
2022-09-07T02:04:24.956Z,101709.84
2022-09-07T02:05:26.790Z,101706.33
2022-09-07T02:06:28.943Z,101709.80
2022-09-07T02:07:30.830Z,101712.41
2022-09-07T02:08:32.676Z,101710.64
2022-09-07T02:09:34.548Z,101702.82
2022-09-07T02:10:36.517Z,101709.77
2022-09-07T02:11:40.443Z,101711.48
2022-09-07T02:12:42.336Z,101712.35
2022-09-07T02:13:44.206Z,101712.35
2022-09-07T02:14:50.586Z,101707.11
2022-09-07T02:15:49.817Z,101713.16
2022-09-07T02:16:51.739Z,101707.94
2022-09-07T02:17:53.870Z,101713.16
2022-09-07T02:18:55.719Z,101706.17
2022-09-07T02:19:57.587Z,101714.90
2022-09-07T02:20:59.565Z,101713.12
2022-09-07T02:22:01.430Z,101715.70
2022-09-07T02:23:03.329Z,101719.14
2022-09-07T02:24:05.193Z,101713.93
2022-09-07T02:25:07.057Z,101717.38
2022-09-07T02:26:09.184Z,101715.64
2022-09-07T02:27:11.060Z,101715.64
2022-09-07T02:28:12.969Z,101713.87
2022-09-07T02:29:14.838Z,101718.22
2022-09-07T02:30:17.124Z,101716.44
2022-09-07T02:31:19.032Z,101714.70
2022-09-07T02:32:20.884Z,101707.72
2022-09-07T02:33:22.912Z,101712.94
2022-09-07T02:34:24.779Z,101711.16
2022-09-07T02:35:26.657Z,101711.16
2022-09-07T02:36:28.633Z,101706.78
2022-09-07T02:37:30.511Z,101715.48
2022-09-07T02:38:32.454Z,101711.97
2022-09-07T02:39:34.391Z,101721.53
2022-09-07T02:40:36.373Z,101713.70
2022-09-07T02:41:38.237Z,101714.55
2022-09-07T02:42:40.132Z,101707.59
2022-09-07T02:43:42.043Z,101714.52
2022-09-07T02:44:43.907Z,101717.12
2022-09-07T02:45:45.941Z,101714.48
2022-09-07T02:46:47.963Z,101716.22
2022-09-07T02:47:49.817Z,101715.34
2022-09-07T02:48:51.794Z,101717.02
2022-09-07T02:49:53.673Z,101717.92
2022-09-07T02:50:55.647Z,101714.38
2022-09-07T02:51:57.524Z,101719.59
2022-09-07T02:52:59.390Z,101719.59
2022-09-07T02:54:01.293Z,101715.25
2022-09-07T02:55:03.176Z,101716.95
2022-09-07T02:56:05.136Z,101715.18
2022-09-07T02:57:07.014Z,101717.79
2022-09-07T02:58:08.874Z,101714.31
2022-09-07T02:59:10.775Z,101711.67
2022-09-07T03:00:14.379Z,101718.66
2022-09-07T03:01:16.295Z,101721.23
2022-09-07T03:02:18.271Z,101726.45
2022-09-07T03:03:20.058Z,101716.85
2022-09-07T03:04:22.049Z,101720.23
2022-09-07T03:05:23.916Z,101720.23
2022-09-07T03:06:26.192Z,101722.80
2022-09-07T03:07:28.060Z,101720.19
2022-09-07T03:08:30.053Z,101723.67
2022-09-07T03:09:32.072Z,101714.11
2022-09-07T03:10:34.026Z,101723.63
2022-09-07T03:11:35.906Z,101728.84
2022-09-07T03:12:37.771Z,101722.73
2022-09-07T03:13:39.648Z,101731.42
2022-09-07T03:14:41.575Z,101731.42
2022-09-07T03:15:43.522Z,101729.65
2022-09-07T03:16:45.410Z,101729.65
2022-09-07T03:17:47.258Z,101727.88
2022-09-07T03:18:49.141Z,101728.78
2022-09-07T03:19:51.063Z,101733.99
2022-09-07T03:20:53.036Z,101731.35
2022-09-07T03:21:54.948Z,101733.09
2022-09-07T03:22:56.813Z,101734.83
2022-09-07T03:23:58.667Z,101738.27
2022-09-07T03:25:00.574Z,101735.66
2022-09-07T03:26:02.638Z,101740.00
2022-09-07T03:27:04.509Z,101744.34
2022-09-07T03:28:06.373Z,101744.34
2022-09-07T03:29:08.239Z,101745.22
2022-09-07T03:30:11.057Z,101750.42
2022-09-07T03:31:13.012Z,101748.69
2022-09-07T03:32:15.007Z,101751.30
2022-09-07T03:33:16.879Z,101743.48
2022-09-07T03:34:18.758Z,101753.91
2022-09-07T03:35:20.736Z,101750.42
2022-09-07T03:36:23.308Z,101746.09
2022-09-07T03:37:25.179Z,101754.80
2022-09-07T03:38:27.103Z,101755.67
2022-09-07T03:39:29.080Z,101753.06
2022-09-07T03:40:32.064Z,101753.91
2022-09-07T03:41:34.357Z,101749.63
2022-09-07T03:42:36.223Z,101759.16
2022-09-07T03:43:38.103Z,101754.84
2022-09-07T03:44:39.971Z,101747.02
2022-09-07T03:45:41.898Z,101751.37
2022-09-07T03:46:43.835Z,101753.11
2022-09-07T03:47:45.688Z,101753.14
2022-09-07T03:48:47.552Z,101753.14
2022-09-07T03:49:49.435Z,101760.13
2022-09-07T03:50:51.660Z,101764.47
2022-09-07T03:51:53.642Z,101765.37
2022-09-07T03:52:55.520Z,101766.27
2022-09-07T03:53:57.388Z,101770.62
2022-09-07T03:54:59.272Z,101763.67
2022-09-07T03:56:01.171Z,101762.83
2022-09-07T03:57:03.123Z,101771.59
2022-09-07T03:58:04.997Z,101768.15
2022-09-07T03:59:06.876Z,101762.07
2022-09-07T04:00:09.152Z,101764.71
2022-09-07T04:01:11.074Z,101766.48
2022-09-07T04:02:12.963Z,101767.42
2022-09-07T04:03:14.923Z,101767.45
2022-09-07T04:04:16.775Z,101770.09
2022-09-07T04:05:18.809Z,101774.44
2022-09-07T04:06:22.271Z,101769.26
2022-09-07T04:07:24.167Z,101773.67
2022-09-07T04:08:26.100Z,101770.27
2022-09-07T04:09:27.900Z,101774.61
2022-09-07T04:10:30.583Z,101778.98
2022-09-07T04:11:32.481Z,101775.58
2022-09-07T04:12:34.357Z,101779.96
2022-09-07T04:13:36.232Z,101774.78
2022-09-07T04:14:38.110Z,101782.70
2022-09-07T04:15:39.988Z,101777.55
2022-09-07T04:16:42.066Z,101778.45
2022-09-07T04:17:43.994Z,101777.65
2022-09-07T04:18:45.846Z,101779.42
2022-09-07T04:19:47.716Z,101777.72
2022-09-07T04:20:49.683Z,101781.25
2022-09-07T04:21:51.685Z,101776.94
2022-09-07T04:22:54.422Z,101774.37
2022-09-07T04:23:56.384Z,101773.56
2022-09-07T04:24:58.210Z,101783.22
2022-09-07T04:26:00.042Z,101784.12
2022-09-07T04:27:01.916Z,101773.72
2022-09-07T04:28:03.773Z,101777.29
2022-09-07T04:29:05.597Z,101773.84
2022-09-07T04:30:07.735Z,101777.38
2022-09-07T04:31:09.639Z,101773.06
2022-09-07T04:32:15.641Z,101771.38
2022-09-07T04:33:15.235Z,101778.41
2022-09-07T04:34:17.085Z,101768.90
2022-09-07T04:35:18.928Z,101775.02
2022-09-07T04:36:21.163Z,101776.84
2022-09-07T04:37:23.141Z,101771.66
2022-09-07T04:38:25.092Z,101769.08
2022-09-07T04:39:27.197Z,101770.84
2022-09-07T04:40:30.504Z,101769.20
2022-09-07T04:41:32.359Z,101766.64
2022-09-07T04:42:34.249Z,101766.70
2022-09-07T04:43:36.091Z,101771.95
2022-09-07T04:44:37.949Z,101767.62
2022-09-07T04:45:39.829Z,101768.55
2022-09-07T04:46:41.813Z,101776.44
2022-09-07T04:47:43.696Z,101770.38
2022-09-07T04:48:45.540Z,101767.79
2022-09-07T04:49:47.366Z,101764.37
2022-09-07T04:50:49.318Z,101763.59
2022-09-07T04:51:51.206Z,101769.73
2022-09-07T04:52:53.191Z,101775.02
2022-09-07T04:53:55.025Z,101762.88
2022-09-07T04:54:56.913Z,101769.87
2022-09-07T04:55:58.908Z,101766.47
2022-09-07T04:57:00.854Z,101768.27
2022-09-07T04:58:02.717Z,101768.31
2022-09-07T04:59:04.560Z,101773.56
2022-09-07T05:00:06.621Z,101765.78
2022-09-07T05:01:08.513Z,101769.28
2022-09-07T05:02:10.337Z,101764.11
2022-09-07T05:03:12.174Z,101771.13
2022-09-07T05:04:14.038Z,101771.19
2022-09-07T05:05:15.871Z,101772.08
2022-09-07T05:06:18.212Z,101775.64
2022-09-07T05:07:20.051Z,101766.06
2022-09-07T05:08:22.051Z,101773.13
2022-09-07T05:09:23.933Z,101768.80
2022-09-07T05:10:26.488Z,101772.37
2022-09-07T05:11:29.686Z,101761.09
2022-09-07T05:12:31.859Z,101765.52
2022-09-07T05:13:33.814Z,101769.09
2022-09-07T05:14:35.575Z,101770.06
2022-09-07T05:15:37.416Z,101764.91
2022-09-07T05:16:39.426Z,101764.11
2022-09-07T05:17:41.302Z,101767.62
2022-09-07T05:18:43.198Z,101765.93
2022-09-07T05:19:45.029Z,101768.64
2022-09-07T05:20:47.014Z,101772.14
2022-09-07T05:21:48.906Z,101768.70
2022-09-07T05:22:50.721Z,101771.36
2022-09-07T05:23:52.659Z,101770.50
2022-09-07T05:24:54.559Z,101772.33
2022-09-07T05:25:56.416Z,101760.99
2022-09-07T05:26:58.354Z,101768.00
2022-09-07T05:28:00.199Z,101762.75
2022-09-07T05:30:06.615Z,101764.58
2022-09-07T05:32:12.591Z,101765.53
2022-09-07T05:33:17.416Z,101768.17
2022-09-07T05:34:34.543Z,101760.34
2022-09-07T05:35:23.014Z,101773.45
2022-09-07T05:36:25.169Z,101760.38
2022-09-07T05:37:27.023Z,101763.88
2022-09-07T05:38:28.941Z,101764.75
2022-09-07T05:39:31.412Z,101768.25
2022-09-07T05:40:36.179Z,101763.91
2022-09-07T05:41:37.020Z,101762.16
2022-09-07T05:42:38.868Z,101766.56
2022-09-07T05:44:45.098Z,101769.21
2022-09-07T05:45:47.553Z,101765.75
2022-09-07T05:46:49.549Z,101773.62
2022-09-07T05:47:51.367Z,101771.88
2022-09-07T05:48:53.288Z,101768.42
2022-09-07T05:49:57.249Z,101775.42
2022-09-07T05:50:58.938Z,101769.30
2022-09-07T05:52:00.782Z,101771.92
2022-09-07T05:53:02.633Z,101764.09
2022-09-07T05:54:04.465Z,101779.81
2022-09-07T05:55:26.277Z,101766.73
2022-09-07T05:56:10.659Z,101776.36
2022-09-07T05:57:12.501Z,101759.80
2022-09-07T05:58:14.338Z,101770.30
2022-09-07T05:59:16.241Z,101772.03
2022-09-07T06:00:18.917Z,101772.95
2022-09-07T06:01:20.767Z,101774.70
2022-09-07T06:02:22.681Z,101774.72
2022-09-07T06:03:24.615Z,101777.35
2022-09-07T06:04:26.492Z,101769.50
2022-09-07T06:05:28.367Z,101777.41
2022-09-07T06:06:30.528Z,101770.41
2022-09-07T06:07:32.284Z,101778.28
2022-09-07T06:08:34.125Z,101770.47
2022-09-07T06:09:35.931Z,101770.47
2022-09-07T06:10:45.704Z,101770.47
2022-09-07T06:11:42.201Z,101772.23
2022-09-07T06:12:45.656Z,101770.50
2022-09-07T06:13:47.680Z,101773.13
2022-09-07T06:14:49.504Z,101774.91
2022-09-07T06:15:51.387Z,101773.15
2022-09-07T06:16:53.591Z,101764.39
2022-09-07T06:17:55.461Z,101769.68
2022-09-07T06:18:57.313Z,101775.78
2022-09-07T06:19:59.140Z,101781.91
2022-09-07T06:21:01.137Z,101775.81
2022-09-07T06:22:03.186Z,101780.20
2022-09-07T06:23:05.013Z,101775.83
2022-09-07T06:24:06.858Z,101781.95
2022-09-07T06:25:08.693Z,101781.10
2022-09-07T06:26:11.458Z,101785.47
2022-09-07T06:27:13.291Z,101780.25
2022-09-07T06:28:15.038Z,101784.66
2022-09-07T06:29:16.870Z,101781.16
2022-09-07T06:30:19.327Z,101782.05
2022-09-07T06:31:21.366Z,101786.41
2022-09-07T06:33:27.011Z,101791.67
2022-09-07T06:34:28.882Z,101787.34
2022-09-07T06:35:30.760Z,101787.35
2022-09-07T06:36:32.772Z,101794.34
2022-09-07T06:37:34.643Z,101792.63
2022-09-07T06:38:36.536Z,101792.64
2022-09-07T06:39:38.468Z,101798.76
2022-09-07T06:40:40.421Z,101790.03
2022-09-07T06:42:46.660Z,101801.41
2022-09-07T06:43:48.536Z,101799.66
2022-09-07T06:44:50.417Z,101797.94
2022-09-07T06:45:52.507Z,101799.67
2022-09-07T06:47:58.310Z,101798.88
2022-09-07T06:49:00.158Z,101797.17
2022-09-07T06:50:02.131Z,101805.92
2022-09-07T06:51:04.002Z,101799.83
2022-09-07T06:52:05.939Z,101801.56
2022-09-07T06:55:15.165Z,101807.74
2022-09-07T06:56:17.634Z,101796.37
2022-09-07T06:57:19.647Z,101806.88
2022-09-07T06:58:21.533Z,101802.55
2022-09-07T06:59:23.414Z,101794.69
2022-09-07T07:00:25.788Z,101808.68
2022-09-07T07:01:27.989Z,101806.07
2022-09-07T07:02:29.961Z,101810.47
2022-09-07T07:03:31.894Z,101806.11
2022-09-07T07:04:39.463Z,101805.27
2022-09-07T07:05:37.561Z,101813.13
2022-09-07T07:06:39.527Z,101813.16
2022-09-07T07:07:41.424Z,101807.93
2022-09-07T07:08:43.288Z,101817.58
2022-09-07T07:09:45.174Z,101821.06
2022-09-07T07:10:47.132Z,101807.97
2022-09-07T07:11:49.004Z,101812.36
2022-09-07T07:12:50.915Z,101807.99
2022-09-07T07:13:52.780Z,101805.38
2022-09-07T07:14:54.657Z,101808.93
2022-09-07T07:15:56.571Z,101806.31
2022-09-07T07:16:58.590Z,101812.45
2022-09-07T07:18:09.627Z,101807.22
2022-09-07T07:19:04.261Z,101813.36
2022-09-07T07:20:06.217Z,101814.28
2022-09-07T07:21:08.076Z,101813.40
2022-09-07T07:22:29.575Z,101809.93
2022-09-07T07:23:13.650Z,101809.09
2022-09-07T07:24:15.517Z,101812.59
2022-09-07T07:25:17.382Z,101812.59
2022-09-07T07:26:19.565Z,101810.88
2022-09-07T07:27:21.450Z,101805.63
2022-09-07T07:29:29.955Z,101814.38
2022-09-07T07:30:32.065Z,101810.89
2022-09-07T07:31:33.960Z,101817.01
2022-09-07T07:32:35.837Z,101819.64
2022-09-07T07:33:40.616Z,101814.41
2022-09-07T07:34:42.814Z,101822.28
2022-09-07T07:35:44.653Z,101818.81
2022-09-07T07:36:46.597Z,101820.53
2022-09-07T07:37:48.421Z,101814.43
2022-09-07T07:39:05.617Z,101810.94
2022-09-07T07:42:03.546Z,101817.91
2022-09-07T07:43:05.680Z,101813.56
2022-09-07T07:44:09.357Z,101812.66
2022-09-07T07:46:15.639Z,101814.43
2022-09-07T07:47:17.971Z,101810.94
2022-09-07T07:48:20.034Z,101814.43
2022-09-07T07:49:22.151Z,101815.30
2022-09-07T07:50:32.850Z,101793.41
2022-09-07T07:51:28.807Z,101817.06
2022-09-07T07:53:42.425Z,101810.07
2022-09-07T07:54:37.986Z,101812.70
2022-09-07T07:55:43.396Z,101811.84
2022-09-07T07:56:43.538Z,101807.50
2022-09-07T07:57:45.344Z,101805.73
2022-09-07T07:58:47.171Z,101805.73
2022-09-07T07:59:49.099Z,101804.88
2022-09-07T08:00:55.496Z,101810.13
2022-09-07T08:01:54.839Z,101797.88
2022-09-07T08:02:56.701Z,101800.49
2022-09-07T08:03:58.519Z,101805.73
2022-09-07T08:05:00.386Z,101804.88
2022-09-07T08:06:02.336Z,101801.36
2022-09-07T08:07:09.715Z,101803.11
2022-09-07T08:08:07.843Z,101805.75
2022-09-07T08:09:09.666Z,101797.00
2022-09-07T08:10:11.842Z,101807.50
2022-09-07T08:11:13.688Z,101791.75
2022-09-07T08:12:15.536Z,101798.73
2022-09-07T08:13:17.369Z,101798.73
2022-09-07T08:14:19.197Z,101799.58
2022-09-07T08:15:21.085Z,101796.09
2022-09-07T08:16:24.722Z,101794.34
2022-09-07T08:17:26.570Z,101791.70
2022-09-07T08:18:28.416Z,101796.08
2022-09-07T08:19:30.261Z,101788.22
2022-09-07T08:20:32.232Z,101796.95
2022-09-07T08:21:34.059Z,101790.86
2022-09-07T08:22:35.896Z,101789.98
2022-09-07T08:23:37.715Z,101785.61
2022-09-07T08:24:39.518Z,101789.14
2022-09-07T08:25:41.371Z,101782.13
2022-09-07T08:26:43.374Z,101791.78
2022-09-07T08:27:45.217Z,101796.17
2022-09-07T08:28:47.034Z,101786.52
2022-09-07T08:29:48.844Z,101782.14
2022-09-07T08:30:50.942Z,101787.39
2022-09-07T08:31:52.781Z,101783.90
2022-09-07T08:32:54.625Z,101780.38
2022-09-07T08:34:14.511Z,101782.13
2022-09-07T08:35:16.348Z,101791.77
2022-09-07T08:36:18.951Z,101778.66
2022-09-07T08:37:20.788Z,101777.75
2022-09-07T08:38:22.622Z,101782.20
2022-09-07T08:39:24.467Z,101783.08
2022-09-07T08:40:28.115Z,101779.59
2022-09-07T08:41:30.000Z,101780.47
2022-09-07T08:42:31.829Z,101779.62
2022-09-07T08:43:33.713Z,101780.49
2022-09-07T08:44:35.663Z,101781.39
2022-09-07T08:45:37.509Z,101778.77
2022-09-07T08:46:39.601Z,101779.64
2022-09-07T08:47:41.461Z,101780.54
2022-09-07T08:48:43.254Z,101775.30
2022-09-07T08:49:45.065Z,101777.03
2022-09-07T08:50:46.976Z,101778.80
2022-09-07T08:51:48.826Z,101772.69
2022-09-07T08:52:50.619Z,101773.56
2022-09-07T08:53:52.429Z,101772.70
2022-09-07T08:54:54.235Z,101767.46
2022-09-07T08:55:56.029Z,101771.82
2022-09-07T08:58:01.584Z,101765.72
2022-09-07T08:59:03.403Z,101763.97
2022-09-07T09:00:05.319Z,101761.34
2022-09-07T09:03:30.545Z,101761.39
2022-09-07T09:04:19.044Z,101763.13
2022-09-07T09:05:21.417Z,101760.50
2022-09-07T09:06:24.504Z,101750.91
2022-09-07T09:07:26.352Z,101751.77
2022-09-07T09:08:28.146Z,101746.53
2022-09-07T09:09:30.564Z,101746.53
2022-09-07T09:10:32.670Z,101749.16
2022-09-07T09:11:36.293Z,101739.52
2022-09-07T09:12:38.138Z,101744.78
2022-09-07T09:13:39.950Z,101749.17
2022-09-07T09:14:41.855Z,101753.56
2022-09-07T09:15:43.710Z,101748.31
2022-09-07T09:16:45.563Z,101741.30
2022-09-07T09:17:47.544Z,101741.30
2022-09-07T09:18:49.342Z,101746.55
2022-09-07T09:19:51.147Z,101741.29
2022-09-07T09:20:53.208Z,101749.17
2022-09-07T09:21:55.020Z,101739.52
2022-09-07T09:22:56.970Z,101743.05
2022-09-07T09:23:58.779Z,101742.14
2022-09-07T09:25:00.822Z,101729.91
2022-09-07T09:26:02.818Z,101743.91
2022-09-07T09:27:04.625Z,101736.03
2022-09-07T09:28:06.672Z,101729.91
2022-09-07T09:29:08.466Z,101731.64
2022-09-07T09:30:10.578Z,101724.66
2022-09-07T09:31:12.439Z,101731.64
2022-09-07T09:32:14.274Z,101725.53
2022-09-07T09:33:16.179Z,101725.53
2022-09-07T09:34:17.995Z,101722.05
2022-09-07T09:35:19.787Z,101728.16
2022-09-07T09:36:22.313Z,101723.81
2022-09-07T09:37:24.169Z,101722.05
2022-09-07T09:38:25.963Z,101720.30
2022-09-07T09:39:27.803Z,101719.42
2022-09-07T09:40:30.334Z,101722.06
2022-09-07T09:41:32.197Z,101721.20
2022-09-07T09:42:34.033Z,101714.18
2022-09-07T09:43:35.884Z,101717.67
2022-09-07T09:44:38.010Z,101722.06
2022-09-07T09:46:44.269Z,101719.44
2022-09-07T09:47:46.407Z,101720.30
2022-09-07T09:48:48.258Z,101712.42
2022-09-07T09:49:50.055Z,101717.67
2022-09-07T09:52:59.469Z,101721.20
2022-09-07T09:54:01.330Z,101722.94
2022-09-07T09:55:33.707Z,101714.19
2022-09-07T09:56:07.064Z,101720.30
2022-09-07T09:57:08.864Z,101720.30
2022-09-07T10:00:27.926Z,101728.17
2022-09-07T10:01:24.005Z,101716.80
2022-09-07T10:04:32.974Z,101714.17
2022-09-07T10:05:34.768Z,101708.05
2022-09-07T10:06:36.673Z,101719.44
2022-09-07T10:07:38.476Z,101719.44
2022-09-07T10:08:40.294Z,101711.55
2022-09-07T10:09:42.159Z,101713.31
2022-09-07T10:10:44.052Z,101714.19
2022-09-07T10:12:49.525Z,101711.55
2022-09-07T10:13:51.335Z,101707.17
2022-09-07T10:14:53.176Z,101707.17
2022-09-07T10:15:55.063Z,101703.67
2022-09-07T10:16:57.029Z,101708.07
2022-09-07T10:17:58.828Z,101705.44
2022-09-07T10:19:00.939Z,101710.70
2022-09-07T10:20:02.916Z,101708.07
2022-09-07T10:21:04.718Z,101707.17
2022-09-07T10:22:06.503Z,101711.56
2022-09-07T10:23:08.321Z,101715.95
2022-09-07T10:24:10.129Z,101707.21
2022-09-07T10:25:11.910Z,101709.84
2022-09-07T10:26:14.002Z,101708.07
2022-09-07T10:27:15.809Z,101705.45
2022-09-07T10:28:17.607Z,101708.94
2022-09-07T10:29:19.414Z,101706.30
2022-09-07T10:30:23.105Z,101707.17
2022-09-07T10:31:24.969Z,101708.94
2022-09-07T10:32:26.806Z,101708.94
2022-09-07T10:33:28.668Z,101705.44
2022-09-07T10:34:30.461Z,101698.42
2022-09-07T10:35:32.377Z,101703.67
2022-09-07T10:36:35.016Z,101702.81
2022-09-07T10:37:36.835Z,101695.80
2022-09-07T10:38:38.635Z,101698.42
2022-09-07T10:39:40.492Z,101696.66
2022-09-07T10:40:42.392Z,101692.30
2022-09-07T10:41:44.202Z,101701.05
2022-09-07T10:43:50.195Z,101699.33
2022-09-07T10:44:51.978Z,101701.09
2022-09-07T10:45:53.874Z,101701.98
2022-09-07T10:46:57.333Z,101699.36
2022-09-07T10:47:59.346Z,101695.83
2022-09-07T10:49:01.166Z,101705.48
2022-09-07T10:51:13.757Z,101703.72
2022-09-07T10:52:10.353Z,101698.48
2022-09-07T10:53:37.120Z,101696.72
2022-09-07T10:54:31.501Z,101700.22
2022-09-07T10:55:19.400Z,101696.72
2022-09-07T10:56:21.559Z,101697.58
2022-09-07T10:57:23.355Z,101700.21
2022-09-07T10:59:01.517Z,101690.59
2022-09-07T11:00:07.568Z,101690.59
2022-09-07T11:00:32.739Z,101694.08
2022-09-07T11:01:34.690Z,101696.70
2022-09-07T11:03:58.507Z,101688.81
2022-09-07T11:05:00.388Z,101687.08
2022-09-07T11:06:02.318Z,101682.67
2022-09-07T11:07:04.205Z,101681.81
2022-09-07T11:08:06.050Z,101678.28
2022-09-07T11:09:16.723Z,101679.17
2022-09-07T11:10:11.880Z,101680.03
2022-09-07T11:12:35.728Z,101674.77
2022-09-07T11:13:50.244Z,101676.53
2022-09-07T11:14:41.207Z,101673.89
2022-09-07T11:15:43.067Z,101673.89
2022-09-07T11:16:52.296Z,101664.23
2022-09-07T11:17:52.736Z,101674.74
2022-09-07T11:18:52.423Z,101667.75
2022-09-07T11:19:54.210Z,101666.84
2022-09-07T11:20:56.135Z,101665.11
2022-09-07T11:21:58.066Z,101673.86
2022-09-07T11:22:59.947Z,101657.21
2022-09-07T11:24:01.767Z,101668.59
2022-09-07T11:26:07.342Z,101664.20
2022-09-07T11:27:09.181Z,101661.57
2022-09-07T11:28:11.145Z,101661.57
2022-09-07T11:30:17.621Z,101655.45
2022-09-07T11:31:19.505Z,101663.34
2022-09-07T11:32:21.362Z,101656.31
2022-09-07T11:33:23.224Z,101661.58
2022-09-07T11:34:25.258Z,101658.95
2022-09-07T11:35:27.221Z,101652.83
2022-09-07T11:36:29.549Z,101654.59
2022-09-07T11:37:31.391Z,101657.22
2022-09-07T11:38:33.523Z,101653.69
2022-09-07T11:39:35.443Z,101654.58
2022-09-07T11:40:37.451Z,101655.45
2022-09-07T11:41:39.276Z,101654.58
2022-09-07T11:42:44.438Z,101651.94
2022-09-07T11:43:44.827Z,101658.93
2022-09-07T11:44:46.640Z,101649.30
2022-09-07T11:45:48.553Z,101652.80
2022-09-07T11:46:50.450Z,101651.03
2022-09-07T11:47:52.278Z,101657.19
2022-09-07T11:48:54.142Z,101654.55
2022-09-07T11:49:59.117Z,101657.18
2022-09-07T11:50:59.811Z,101651.02
2022-09-07T11:52:05.056Z,101658.05
2022-09-07T11:53:05.268Z,101651.92
2022-09-07T11:54:07.180Z,101657.18
2022-09-07T11:55:09.040Z,101650.16
2022-09-07T11:56:11.281Z,101651.92
2022-09-07T11:57:13.109Z,101649.28
2022-09-07T11:58:14.934Z,101644.89
2022-09-07T11:59:16.793Z,101643.13
2022-09-07T12:00:19.315Z,101651.01
2022-09-07T12:01:21.150Z,101646.64
2022-09-07T12:02:32.332Z,101648.38
2022-09-07T12:03:26.663Z,101646.64
2022-09-07T12:04:28.604Z,101641.38
2022-09-07T12:05:30.387Z,101645.73
2022-09-07T12:06:32.317Z,101647.51
2022-09-07T12:07:34.719Z,101643.11
2022-09-07T12:08:36.571Z,101646.64
2022-09-07T12:09:38.475Z,101641.38
2022-09-07T12:10:40.377Z,101644.88
2022-09-07T12:11:42.236Z,101637.86
2022-09-07T12:12:44.051Z,101639.63
2022-09-07T12:13:45.872Z,101640.48
2022-09-07T12:14:47.720Z,101642.26
2022-09-07T12:15:49.588Z,101638.75
2022-09-07T12:16:51.675Z,101641.39
2022-09-07T12:17:53.496Z,101636.13
2022-09-07T12:18:55.348Z,101635.23
2022-09-07T12:19:57.202Z,101642.26
2022-09-07T12:20:59.219Z,101637.86